Time;durP1;ratioP1;P1;durP2;ratioP2;P2;SDS_P1;SDS_P2;PMS_P1;PMS_P2;Temp;Humidity;BMP_temperature;BMP_pressure;BME280_temperature;BME280_humidity;BME280_pressure;Samples;Min_cycle;Max_cycle;Signal;HPM_P1;HPM_P2
2023/09/02 00:02:21;;;;;;;8.10;6.20;;;;;;;16.26;100.00;101540.50;5031743;28;20415;-88
2023/09/02 00:04:47;;;;;;;8.35;6.80;;;;;;;16.26;100.00;101543.13;5034213;28;20041;-88
2023/09/02 00:07:12;;;;;;;8.82;6.40;;;;;;;16.25;100.00;101547.53;5033886;28;20501;-87
2023/09/02 00:09:37;;;;;;;8.90;6.68;;;;;;;16.25;100.00;101542.28;5031496;28;20448;-87
2023/09/02 00:12:03;;;;;;;8.63;6.45;;;;;;;16.24;100.00;101540.56;5027948;28;20033;-87
2023/09/02 00:14:28;;;;;;;7.90;6.07;;;;;;;16.21;100.00;101545.94;5029765;28;20025;-87
2023/09/02 00:16:53;;;;;;;10.15;6.40;;;;;;;16.20;100.00;101539.84;5031074;28;20057;-88
2023/09/02 00:19:19;;;;;;;8.68;6.57;;;;;;;16.18;100.00;101546.91;5031834;28;20025;-87
2023/09/02 00:21:44;;;;;;;8.30;6.57;;;;;;;16.19;100.00;101545.13;5030087;28;20017;-88
2023/09/02 00:24:09;;;;;;;8.65;6.80;;;;;;;16.18;100.00;101540.78;5031142;28;20412;-87
2023/09/02 00:26:34;;;;;;;7.85;6.25;;;;;;;16.17;100.00;101550.47;5030938;28;20037;-87
2023/09/02 00:29:00;;;;;;;9.38;6.85;;;;;;;16.18;100.00;101540.78;5031598;28;20037;-87
2023/09/02 00:31:26;;;;;;;9.77;6.80;;;;;;;16.18;100.00;101540.78;5032366;28;20030;-88
2023/09/02 00:33:52;;;;;;;8.10;6.40;;;;;;;16.18;100.00;101546.91;5032852;28;20022;-87
2023/09/02 00:36:17;;;;;;;9.80;6.97;;;;;;;16.18;100.00;101546.06;5031805;28;20124;-87
2023/09/02 00:38:43;;;;;;;10.55;7.03;;;;;;;16.17;100.00;101550.47;5014845;28;20429;-87
2023/09/02 00:41:37;;;;;;;9.65;6.97;;;;;;;16.17;100.00;101555.72;5032044;28;20452;-87
2023/09/02 00:44:03;;;;;;;8.50;6.60;;;;;;;16.17;100.00;101550.47;5030613;28;20029;-88
2023/09/02 00:46:28;;;;;;;8.65;7.15;;;;;;;16.16;100.00;101543.50;5031903;28;20032;-87
2023/09/02 00:48:54;;;;;;;8.63;7.03;;;;;;;16.18;100.00;101551.31;5032656;28;20026;-87
2023/09/02 00:51:19;;;;;;;8.60;6.75;;;;;;;16.17;100.00;101541.72;5032508;28;20038;-87
2023/09/02 00:53:47;;;;;;;8.45;6.50;;;;;;;16.15;100.00;101543.53;5032399;28;20021;-87
2023/09/02 00:56:14;;;;;;;8.88;6.68;;;;;;;16.14;100.00;101536.59;5020999;28;20469;-87
2023/09/02 00:58:40;;;;;;;9.88;7.40;;;;;;;16.13;100.00;101535.72;5031599;28;20033;-88
2023/09/02 01:01:06;;;;;;;9.52;7.18;;;;;;;16.13;100.00;101542.75;5031097;28;20397;-88
2023/09/02 01:03:33;;;;;;;10.82;6.35;;;;;;;16.13;100.00;101535.72;5012788;28;20029;-87
2023/09/02 01:05:58;;;;;;;9.25;7.13;;;;;;;16.12;100.00;101539.28;5029679;28;20084;-88
2023/09/02 01:08:26;;;;;;;9.77;7.05;;;;;;;16.11;100.00;101545.44;5030652;28;20450;-88
2023/09/02 01:10:52;;;;;;;9.38;7.25;;;;;;;16.12;100.00;101544.53;5030871;28;20104;-88
2023/09/02 01:13:17;;;;;;;9.57;6.90;;;;;;;16.12;100.00;101549.75;5029360;28;20068;-88
2023/09/02 01:15:42;;;;;;;8.07;6.78;;;;;;;16.11;100.00;101550.69;5030124;28;20060;-88
2023/09/02 01:18:07;;;;;;;9.05;6.85;;;;;;;16.11;100.00;101555.94;5030877;28;20041;-87
2023/09/02 01:20:55;;;;;;;10.40;6.93;;;;;;;16.12;100.00;101552.38;5030552;28;20546;-87
2023/09/02 01:23:39;;;;;;;9.70;6.90;;;;;;;16.11;100.00;101555.94;5029837;28;20025;-88
2023/09/02 01:26:13;;;;;;;8.13;6.35;;;;;;;16.10;100.00;101559.47;5032312;28;20108;-88
2023/09/02 01:28:42;;;;;;;7.50;6.05;;;;;;;16.11;100.00;101562.97;5035361;28;20030;-87
2023/09/02 01:31:12;;;;;;;10.25;6.95;;;;;;;16.08;100.00;101559.53;5033240;28;20030;-88
2023/09/02 01:33:40;;;;;;;9.95;6.60;;;;;;;16.08;100.00;101566.53;5034121;28;20025;-87
2023/09/02 01:36:05;;;;;;;8.55;6.82;;;;;;;16.07;100.00;101567.44;5032147;28;20033;-87
2023/09/02 01:38:32;;;;;;;8.75;6.47;;;;;;;16.06;100.00;101568.34;5035652;28;20104;-87
2023/09/02 01:41:00;;;;;;;8.43;6.72;;;;;;;16.05;100.00;101566.69;5033527;28;20040;-87
2023/09/02 01:43:29;;;;;;;9.38;6.68;;;;;;;16.06;100.00;101568.34;5032012;28;20025;-88
2023/09/02 01:45:56;;;;;;;9.00;6.60;;;;;;;16.06;100.00;101565.72;5015293;28;20021;-88
2023/09/02 01:48:23;;;;;;;7.97;6.38;;;;;;;16.03;100.00;101569.34;5034606;28;20029;-87
2023/09/02 01:50:51;;;;;;;9.13;6.55;;;;;;;16.02;100.00;101556.28;5015886;28;21650;-88
2023/09/02 01:53:17;;;;;;;12.35;6.88;;;;;;;16.01;100.00;101580.81;5029899;28;20063;-88
2023/09/02 01:55:43;;;;;;;8.63;6.63;;;;;;;16.02;100.00;101577.28;5023292;28;20022;-88
2023/09/02 01:58:10;;;;;;;8.00;6.38;;;;;;;15.99;100.00;101572.97;5032248;28;20040;-88
2023/09/02 02:00:36;;;;;;;9.00;6.90;;;;;;;15.99;100.00;101572.13;5034371;28;20040;-88
2023/09/02 02:03:02;;;;;;;8.80;6.30;;;;;;;15.98;100.00;101567.81;5034206;28;20041;-88
2023/09/02 02:05:35;;;;;;;11.02;6.47;;;;;;;15.98;100.00;101575.69;5031964;28;20045;-87
2023/09/02 02:08:07;;;;;;;8.82;6.57;;;;;;;15.96;100.00;101578.38;5033805;28;20024;-88
2023/09/02 02:10:35;;;;;;;8.18;6.72;;;;;;;15.96;100.00;101577.50;5033831;28;20033;-87
2023/09/02 02:13:02;;;;;;;7.88;6.55;;;;;;;15.96;100.00;101586.25;5032659;28;20432;-88
2023/09/02 02:15:27;;;;;;;7.32;5.93;;;;;;;15.95;100.00;101581.03;5015951;28;20026;-87
2023/09/02 02:17:52;;;;;;;8.52;6.05;;;;;;;15.92;100.00;101580.22;5032663;28;20104;-87
2023/09/02 02:20:18;;;;;;;8.05;6.28;;;;;;;15.91;100.00;101575.88;5033168;28;20029;-87
2023/09/02 02:22:44;;;;;;;8.02;6.35;;;;;;;15.90;100.00;101584.66;5032323;28;20026;-87
2023/09/02 02:25:09;;;;;;;8.38;6.15;;;;;;;15.90;100.00;101586.47;5015941;28;20026;-87
2023/09/02 02:27:34;;;;;;;7.95;6.10;;;;;;;15.88;100.00;101601.41;5033971;28;20037;-88
2023/09/02 02:29:59;;;;;;;8.65;6.13;;;;;;;15.83;100.00;101591.03;5033149;28;20040;-88
2023/09/02 02:32:25;;;;;;;8.00;6.28;;;;;;;15.83;100.00;101588.41;5032958;28;20032;-88
2023/09/02 02:34:50;;;;;;;8.52;6.20;;;;;;;15.81;100.00;101595.47;5033126;28;20024;-87
2023/09/02 02:37:15;;;;;;;10.88;7.13;;;;;;;15.79;100.00;101594.69;5030440;28;20037;-87
2023/09/02 02:39:40;;;;;;;8.15;6.35;;;;;;;15.79;100.00;101599.91;5033831;28;20366;-88
2023/09/02 02:42:07;;;;;;;8.45;6.65;;;;;;;15.77;100.00;101604.38;5032971;28;20039;-88
2023/09/02 02:44:33;;;;;;;9.57;6.85;;;;;;;15.76;100.00;101597.41;5033700;28;20048;-87
2023/09/02 02:46:58;;;;;;;9.27;7.10;;;;;;;15.77;100.00;101588.63;5031362;28;20037;-87
2023/09/02 02:49:24;;;;;;;6.93;5.93;;;;;;;15.76;100.00;101602.66;5033506;28;20029;-88
2023/09/02 02:51:49;;;;;;;7.28;5.90;;;;;;;15.75;100.00;101595.69;5032959;28;20021;-88
2023/09/02 02:54:15;;;;;;;7.20;5.72;;;;;;;15.73;100.00;101590.50;5031660;28;20048;-87
2023/09/02 02:56:40;;;;;;;9.32;6.65;;;;;;;15.73;100.00;101592.25;5033755;28;20033;-88
2023/09/02 02:59:06;;;;;;;8.07;6.45;;;;;;;15.73;100.00;101600.13;5032718;28;20103;-88
2023/09/02 03:01:31;;;;;;;8.00;6.38;;;;;;;15.73;100.00;101598.38;5030118;28;20100;-88
2023/09/02 03:03:56;;;;;;;7.93;5.65;;;;;;;15.74;100.00;101609.72;5031756;28;20547;-88
2023/09/02 03:06:21;;;;;;;7.05;5.68;;;;;;;15.73;100.00;101603.63;5033231;28;20029;-88
2023/09/02 03:08:47;;;;;;;8.75;5.60;;;;;;;15.74;100.00;101604.47;5030774;28;20017;-88
2023/09/02 03:11:12;;;;;;;5.88;4.93;;;;;;;15.72;100.00;101601.03;5032880;28;20021;-87
2023/09/02 03:13:38;;;;;;;5.70;4.85;;;;;;;15.71;100.00;101591.47;5031368;28;20021;-87
2023/09/02 03:16:04;;;;;;;6.65;4.93;;;;;;;15.70;100.00;101593.22;5031379;28;20473;-88
2023/09/02 03:18:30;;;;;;;6.80;5.53;;;;;;;15.69;100.00;101596.75;5025827;28;20025;-87
2023/09/02 03:21:02;;;;;;;6.68;5.43;;;;;;;15.69;100.00;101595.94;5033282;28;20036;-87
2023/09/02 03:23:27;;;;;;;6.90;5.53;;;;;;;15.70;100.00;101597.63;5031305;28;20017;-87
2023/09/02 03:25:52;;;;;;;6.40;5.32;;;;;;;15.69;100.00;101595.94;5030131;28;20522;-87
2023/09/02 03:28:17;;;;;;;6.95;5.65;;;;;;;15.70;100.00;101605.50;5031453;28;20036;-87
2023/09/02 03:30:43;;;;;;;8.00;5.25;;;;;;;15.70;100.00;101595.00;5032759;28;20530;-87
2023/09/02 03:33:09;;;;;;;6.57;4.90;;;;;;;15.71;100.00;101602.81;5031879;28;20018;-88
2023/09/02 03:35:38;;;;;;;7.20;5.47;;;;;;;15.72;100.00;101595.78;5014381;28;20029;-87
2023/09/02 03:38:04;;;;;;;7.55;5.80;;;;;;;15.72;100.00;101596.66;5028654;28;20025;-87
2023/09/02 03:40:29;;;;;;;8.27;5.97;;;;;;;15.73;100.00;101597.50;5032729;28;20408;-87
2023/09/02 03:42:55;;;;;;;6.95;5.45;;;;;;;15.73;100.00;101608.88;5030932;28;20945;-87
2023/09/02 03:45:20;;;;;;;8.55;5.63;;;;;;;15.73;100.00;101611.50;5033554;28;20156;-88
2023/09/02 03:47:45;;;;;;;7.60;5.70;;;;;;;15.72;100.00;101611.53;5032778;28;20151;-87
2023/09/02 03:50:11;;;;;;;7.50;6.00;;;;;;;15.71;100.00;101601.97;5033275;28;20029;-87
2023/09/02 03:52:36;;;;;;;8.05;6.13;;;;;;;15.72;100.00;101616.78;5031840;28;20445;-88
2023/09/02 03:55:01;;;;;;;7.75;6.00;;;;;;;15.70;100.00;101613.38;5033360;28;20028;-87
2023/09/02 03:57:27;;;;;;;7.55;5.75;;;;;;;15.69;100.00;101614.28;5033271;28;20384;-88
2023/09/02 03:59:52;;;;;;;7.20;6.03;;;;;;;15.70;100.00;101619.47;5033259;28;20537;-87
2023/09/02 04:02:17;;;;;;;10.18;6.85;;;;;;;15.71;100.00;101621.19;5030678;28;20032;-88
2023/09/02 04:04:43;;;;;;;9.73;6.18;;;;;;;15.70;100.00;101616.84;5032642;28;20136;-88
2023/09/02 04:07:08;;;;;;;9.32;6.38;;;;;;;15.71;100.00;101618.56;5033022;28;20457;-88
2023/09/02 04:09:34;;;;;;;8.60;6.57;;;;;;;15.71;100.00;101630.84;5033102;28;20025;-88
2023/09/02 04:11:59;;;;;;;8.35;6.15;;;;;;;15.71;100.00;101631.69;5031796;28;20025;-87
2023/09/02 04:14:25;;;;;;;8.05;6.75;;;;;;;15.71;100.00;101621.19;5032288;28;20061;-88
2023/09/02 04:16:52;;;;;;;7.72;6.57;;;;;;;15.71;100.00;101618.56;5031377;28;20086;-88
2023/09/02 04:19:17;;;;;;;9.50;6.90;;;;;;;15.72;100.00;101624.66;5031018;28;20017;-88
2023/09/02 04:21:43;;;;;;;9.77;6.50;;;;;;;15.72;100.00;101624.66;5031816;28;20021;-87
2023/09/02 04:24:08;;;;;;;7.50;6.25;;;;;;;15.71;100.00;101620.34;5030291;28;20077;-88
2023/09/02 04:26:34;;;;;;;9.20;6.15;;;;;;;15.71;100.00;101620.34;5013289;28;20130;-88
2023/09/02 04:29:00;;;;;;;9.95;6.63;;;;;;;15.72;100.00;101632.53;5031769;28;20071;-88
2023/09/02 04:31:26;;;;;;;9.88;6.32;;;;;;;15.71;100.00;101620.34;5031196;28;20029;-88
2023/09/02 04:33:52;;;;;;;9.13;6.38;;;;;;;15.71;100.00;101622.97;5013853;28;20425;-88
2023/09/02 04:36:17;;;;;;;10.52;6.55;;;;;;;15.70;100.00;101623.88;5029831;28;20063;-87
2023/09/02 04:38:42;;;;;;;8.10;6.28;;;;;;;15.69;100.00;101632.66;5030946;28;20473;-88
2023/09/02 04:41:08;;;;;;;8.07;6.30;;;;;;;15.68;100.00;101630.94;5030969;28;20087;-88
2023/09/02 04:43:37;;;;;;;8.43;6.13;;;;;;;15.68;100.00;101634.41;5031107;28;20053;-88
2023/09/02 04:46:04;;;;;;;7.93;6.25;;;;;;;15.67;100.00;101627.44;5031156;28;20033;-87
2023/09/02 04:48:29;;;;;;;7.00;5.95;;;;;;;15.66;100.00;101633.59;5031547;28;20053;-88
2023/09/02 04:50:55;;;;;;;7.95;6.00;;;;;;;15.67;100.00;101637.94;5032243;28;20030;-88
2023/09/02 04:53:21;;;;;;;9.07;6.03;;;;;;;15.65;100.00;101634.50;5032556;28;20107;-88
2023/09/02 04:55:47;;;;;;;7.03;5.82;;;;;;;15.65;100.00;101631.88;5031330;28;20037;-88
2023/09/02 04:58:12;;;;;;;6.97;5.60;;;;;;;15.63;100.00;101634.56;5032367;28;20025;-88
2023/09/02 05:00:38;;;;;;;8.05;5.82;;;;;;;15.65;100.00;101645.00;5034941;28;20021;-87
2023/09/02 05:03:04;;;;;;;7.47;5.47;;;;;;;15.64;100.00;101640.66;5036679;28;20021;-88
2023/09/02 05:05:29;;;;;;;7.63;5.47;;;;;;;15.64;100.00;101643.28;5036460;28;20049;-88
2023/09/02 05:07:56;;;;;;;6.88;5.68;;;;;;;15.64;100.00;101645.91;5036165;28;20075;-87
2023/09/02 05:10:21;;;;;;;6.55;5.47;;;;;;;15.63;100.00;101649.44;5017761;28;20029;-88
2023/09/02 05:12:47;;;;;;;6.38;5.32;;;;;;;15.61;100.00;101652.13;5035985;28;20029;-88
2023/09/02 05:15:12;;;;;;;7.90;5.10;;;;;;;15.61;100.00;101646.88;5035616;28;20032;-87
2023/09/02 05:17:37;;;;;;;7.40;4.80;;;;;;;15.60;100.00;101645.16;5020332;28;20382;-88
2023/09/02 05:20:04;;;;;;;6.80;5.10;;;;;;;15.60;100.00;101642.53;5035154;28;20025;-87
2023/09/02 05:22:30;;;;;;;8.27;5.32;;;;;;;15.59;100.00;101650.47;5034297;28;20014;-87
2023/09/02 05:24:55;;;;;;;6.65;5.40;;;;;;;15.58;100.00;101662.72;5033766;28;20072;-87
2023/09/02 05:27:21;;;;;;;6.55;5.20;;;;;;;15.57;100.00;101668.00;5034095;28;20025;-88
2023/09/02 05:29:47;;;;;;;7.75;5.30;;;;;;;15.59;100.00;101668.81;5035886;28;20095;-88
2023/09/02 05:32:13;;;;;;;5.90;4.88;;;;;;;15.58;100.00;101665.34;5033254;28;20469;-88
2023/09/02 05:34:39;;;;;;;8.18;5.43;;;;;;;15.59;100.00;101663.59;5032882;28;20488;-87
2023/09/02 05:37:05;;;;;;;7.40;5.95;;;;;;;15.61;100.00;101667.84;5034379;28;20033;-87
2023/09/02 05:39:30;;;;;;;7.82;5.47;;;;;;;15.61;100.00;101667.84;5034875;28;20499;-88
2023/09/02 05:41:55;;;;;;;7.03;5.82;;;;;;;15.63;100.00;101681.78;5035873;28;20415;-87
2023/09/02 05:44:20;;;;;;;7.80;5.97;;;;;;;15.63;100.00;101675.66;5033127;28;20086;-87
2023/09/02 05:46:46;;;;;;;7.18;5.45;;;;;;;15.65;100.00;101675.63;5033449;28;20033;-87
2023/09/02 05:49:12;;;;;;;8.45;5.75;;;;;;;15.66;100.00;101685.22;5024019;28;20025;-88
2023/09/02 05:51:38;;;;;;;7.57;5.32;;;;;;;15.66;100.00;101687.84;4998193;28;20354;-87
2023/09/02 05:54:03;;;;;;;6.30;5.20;;;;;;;15.67;100.00;101689.56;5032020;28;20036;-87
2023/09/02 05:56:28;;;;;;;6.28;5.40;;;;;;;15.68;100.00;101689.50;5017590;28;20025;-88
2023/09/02 05:58:54;;;;;;;6.90;5.60;;;;;;;15.71;100.00;101693.78;5034313;28;20048;-87
2023/09/02 06:01:19;;;;;;;7.40;5.47;;;;;;;15.73;100.00;101703.31;5032021;28;20377;-87
2023/09/02 06:03:44;;;;;;;7.07;5.28;;;;;;;15.75;100.00;101698.00;5030321;28;20112;-88
2023/09/02 06:06:13;;;;;;;7.03;5.97;;;;;;;15.77;100.00;101698.81;5033122;28;20088;-88
2023/09/02 06:08:39;;;;;;;7.10;5.50;;;;;;;15.79;100.00;101702.25;5033217;28;20035;-88
2023/09/02 06:11:04;;;;;;;8.75;5.88;;;;;;;15.80;100.00;101698.72;5033096;28;20101;-88
2023/09/02 06:13:30;;;;;;;9.18;5.80;;;;;;;15.81;100.00;101708.31;5030820;28;20094;-88
2023/09/02 06:16:00;;;;;;;6.63;5.38;;;;;;;15.86;100.00;101708.16;5033937;28;20119;-88
2023/09/02 06:18:25;;;;;;;7.53;5.50;;;;;;;15.86;100.00;101710.78;5031184;28;20025;-88
2023/09/02 06:20:50;;;;;;;8.13;5.82;;;;;;;15.89;100.00;101711.53;5032122;28;20388;-88
2023/09/02 06:23:16;;;;;;;7.68;5.82;;;;;;;15.92;100.00;101718.47;5031278;28;20054;-87
2023/09/02 06:25:41;;;;;;;7.72;6.18;;;;;;;15.96;100.00;101725.34;5030839;28;20026;-88
2023/09/02 06:28:06;;;;;;;7.25;6.15;;;;;;;15.99;100.00;101724.34;5033009;28;20033;-88
2023/09/02 06:30:31;;;;;;;7.78;6.30;;;;;;;16.02;100.00;101730.34;5034754;28;20041;-88
2023/09/02 06:32:57;;;;;;;7.70;6.60;;;;;;;16.07;100.00;101728.44;5034273;28;20061;-88
2023/09/02 06:35:22;;;;;;;9.27;6.50;;;;;;;16.13;100.00;101737.03;5032549;28;20029;-88
2023/09/02 06:37:49;;;;;;;8.23;6.20;;;;;;;16.18;100.00;101738.56;5033994;28;20029;-87
2023/09/02 06:40:14;;;;;;;7.78;6.80;;;;;;;16.21;100.00;101735.84;5034674;28;20025;-88
2023/09/02 06:42:40;;;;;;;8.05;7.07;;;;;;;16.26;100.00;101734.78;5016565;28;20028;-87
2023/09/02 06:45:06;;;;;;;8.63;7.20;;;;;;;16.28;100.00;101738.22;5033920;28;20021;-88
2023/09/02 06:47:32;;;;;;;7.82;6.93;;;;;;;16.30;100.00;101739.91;5034042;28;20123;-88
2023/09/02 06:49:57;;;;;;;8.32;7.20;;;;;;;16.33;100.00;101747.66;5032579;28;20528;-88
2023/09/02 06:52:22;;;;;;;9.15;6.63;;;;;;;16.36;100.00;101754.59;5033925;28;20025;-88
2023/09/02 06:54:51;;;;;;;8.77;7.05;;;;;;;16.39;100.00;101762.34;5034073;28;20063;-88
2023/09/02 06:57:16;;;;;;;8.20;6.70;;;;;;;16.40;100.00;101766.66;5033704;28;20025;-88
2023/09/02 06:59:41;;;;;;;8.05;7.00;;;;;;;16.42;100.00;101769.25;5032424;28;20469;-87
2023/09/02 07:02:06;;;;;;;7.30;6.60;;;;;;;16.44;100.00;101777.94;5030541;28;20079;-88
2023/09/02 07:04:32;;;;;;;9.02;7.05;;;;;;;16.45;100.00;101780.50;5029797;28;20404;-88
2023/09/02 07:06:57;;;;;;;9.50;6.97;;;;;;;16.47;100.00;101789.19;5031479;28;20029;-88
2023/09/02 07:09:22;;;;;;;9.25;7.07;;;;;;;16.51;100.00;101797.81;5032364;28;20482;-88
2023/09/02 07:11:48;;;;;;;7.95;7.15;;;;;;;16.51;100.00;101809.19;5033749;28;20041;-88
2023/09/02 07:14:13;;;;;;;8.55;7.65;;;;;;;16.52;100.00;101813.53;5029208;28;20033;-88
2023/09/02 07:16:38;;;;;;;8.65;7.50;;;;;;;16.53;100.00;101804.75;5031560;28;20021;-88
2023/09/02 07:19:03;;;;;;;8.50;7.35;;;;;;;16.56;100.00;101821.31;5032390;28;20014;-88
2023/09/02 07:21:29;;;;;;;9.10;7.75;;;;;;;16.58;100.00;101822.09;5030263;28;20040;-88
2023/09/02 07:23:54;;;;;;;8.52;7.63;;;;;;;16.60;100.00;101822.91;5030700;28;20029;-88
2023/09/02 07:26:20;;;;;;;8.65;7.60;;;;;;;16.63;100.00;101820.16;5029619;28;20126;-88
2023/09/02 07:28:45;;;;;;;8.57;7.68;;;;;;;16.65;100.00;101831.47;5031320;28;20037;-88
2023/09/02 07:31:11;;;;;;;9.20;7.80;;;;;;;16.69;100.00;101835.72;5032062;28;20097;-89
2023/09/02 07:33:36;;;;;;;9.23;7.45;;;;;;;16.74;100.00;101833.78;5030870;28;20029;-89
2023/09/02 07:36:10;;;;;;;9.27;8.13;;;;;;;16.79;100.00;101833.63;5029194;28;20651;-88
2023/09/02 07:38:35;;;;;;;8.90;8.00;;;;;;;16.84;100.00;101834.28;5032248;28;20366;-88
2023/09/02 07:41:00;;;;;;;10.65;8.18;;;;;;;16.89;100.00;101831.53;5030009;28;20037;-88
2023/09/02 07:43:26;;;;;;;8.85;7.95;;;;;;;16.94;100.00;101832.19;5030692;28;20025;-88
2023/09/02 07:45:51;;;;;;;10.90;8.73;;;;;;;16.99;100.00;101838.19;5032547;28;20034;-88
2023/09/02 07:48:16;;;;;;;10.38;9.00;;;;;;;17.02;100.00;101835.44;5032557;28;20037;-88
2023/09/02 07:50:42;;;;;;;10.43;9.07;;;;;;;17.08;100.00;101842.25;5032130;28;20492;-88
2023/09/02 07:53:07;;;;;;;11.25;9.70;;;;;;;17.10;100.00;101849.16;5032483;28;20044;-88
2023/09/02 07:55:33;;;;;;;12.80;10.35;;;;;;;17.13;100.00;101862.19;5030628;28;20031;-89
2023/09/02 07:57:59;;;;;;;13.20;11.30;;;;;;;17.14;100.00;101861.28;5032450;28;20087;-89
2023/09/02 08:00:25;;;;;;;16.35;12.30;;;;;;;17.19;100.00;101863.72;5013401;28;20083;-88
2023/09/02 08:02:51;;;;;;;13.88;12.25;;;;;;;17.23;100.00;101856.59;5030644;28;20021;-88
2023/09/02 08:05:16;;;;;;;15.60;13.38;;;;;;;17.31;100.00;101857.16;5026519;28;20045;-89
2023/09/02 08:07:41;;;;;;;15.80;13.55;;;;;;;17.36;100.00;101854.34;5011650;28;20397;-92
2023/09/02 08:10:07;;;;;;;17.50;14.52;;;;;;;17.41;100.00;101855.91;5029077;28;20209;-91
2023/09/02 08:12:32;;;;;;;18.17;14.32;;;;;;;17.45;100.00;101852.22;5008313;28;20043;-91
2023/09/02 08:14:57;;;;;;;21.90;15.65;;;;;;;17.50;100.00;101857.31;5027604;28;20113;-91
2023/09/02 08:17:23;;;;;;;19.67;16.30;;;;;;;17.53;100.00;101856.34;5032321;28;20032;-85
2023/09/02 08:19:48;;;;;;;19.92;16.30;;;;;;;17.55;100.00;101857.13;5029963;28;20022;-91
2023/09/02 08:22:13;;;;;;;19.23;16.00;;;;;;;17.56;100.00;101864.97;5032016;28;20032;-93
2023/09/02 08:24:39;;;;;;;19.92;14.98;;;;;;;17.60;100.00;101865.69;5027394;28;20029;-86
2023/09/02 08:27:04;;;;;;;19.58;14.98;;;;;;;17.62;100.00;101861.22;5028791;28;20070;-86
2023/09/02 08:29:29;;;;;;;18.13;14.20;;;;;;;17.64;100.00;101862.03;5012855;28;20036;-94
2023/09/02 08:31:56;;;;;;;18.27;14.68;;;;;;;17.68;100.00;101863.63;5029664;28;20024;-92
2023/09/02 08:34:22;;;;;;;17.50;14.18;;;;;;;17.71;100.00;101858.25;5020031;28;20048;-92
2023/09/02 08:36:47;;;;;;;19.95;15.50;;;;;;;17.73;100.00;101860.81;5030053;28;20669;-90
2023/09/02 08:39:12;;;;;;;18.02;15.65;;;;;;;17.75;100.00;101864.22;5032384;28;20025;-89
2023/09/02 08:41:40;;;;;;;19.35;15.23;;;;;;;17.76;100.00;101868.59;5030907;28;20025;-89
2023/09/02 08:44:06;;;;;;;19.45;15.90;;;;;;;17.77;100.00;101866.78;5031056;28;20044;-90
2023/09/02 08:46:33;;;;;;;19.85;16.33;;;;;;;17.75;100.00;101869.50;5029574;28;20033;-87
2023/09/02 08:48:58;;;;;;;19.92;16.85;;;;;;;17.78;100.00;101868.50;5027353;28;20508;-87
2023/09/02 08:51:25;;;;;;;20.48;16.67;;;;;;;17.80;100.00;101867.56;5010279;28;20021;-87
2023/09/02 08:53:53;;;;;;;21.60;17.40;;;;;;;17.82;100.00;101875.38;5026931;28;20564;-89
2023/09/02 08:56:23;;;;;;;21.20;16.58;;;;;;;17.85;100.00;101880.53;5022204;28;20061;-92
2023/09/02 08:58:49;;;;;;;20.20;15.98;;;;;;;17.87;100.00;101874.25;5015816;28;20143;-88
2023/09/02 09:01:20;;;;;;;19.50;15.75;;;;;;;17.90;100.00;101883.84;5016933;28;20037;-88
2023/09/02 09:03:53;;;;;;;21.95;16.88;;;;;;;17.92;100.00;101887.28;5015931;28;20029;-90
2023/09/02 09:06:23;;;;;;;21.17;16.95;;;;;;;17.95;100.00;101888.91;5014600;28;20049;-88
2023/09/02 09:08:52;;;;;;;22.27;16.70;;;;;;;17.97;100.00;101895.81;5017034;28;20140;-88
2023/09/02 09:11:19;;;;;;;19.58;15.60;;;;;;;17.97;100.00;101905.50;5015142;28;20025;-88
2023/09/02 09:13:46;;;;;;;20.80;15.77;;;;;;;17.98;100.00;101902.00;5015035;28;20690;-89
2023/09/02 09:16:16;;;;;;;21.58;17.00;;;;;;;17.96;100.00;101907.25;4998101;28;20053;-88
2023/09/02 09:18:42;;;;;;;18.90;15.40;;;;;;;17.95;100.00;101908.19;5016581;28;20045;-89
2023/09/02 09:21:07;;;;;;;22.35;17.10;;;;;;;17.92;100.00;101905.69;5018054;28;20076;-90
2023/09/02 09:23:35;;;;;;;20.55;16.27;;;;;;;17.93;100.00;101904.78;5016598;28;20036;-89
2023/09/02 09:26:02;;;;;;;18.25;15.10;;;;;;;17.96;100.00;101898.53;5019099;28;20510;-89
2023/09/02 09:28:51;;;;;;;20.13;16.05;;;;;;;18.02;100.00;101908.81;5023760;28;20029;-88
2023/09/02 09:31:17;;;;;;;20.23;15.82;;;;;;;18.04;100.00;101912.25;5025566;28;20029;-89
2023/09/02 09:33:54;;;;;;;19.05;15.40;;;;;;;18.07;100.00;101919.19;5024092;28;20065;-89
2023/09/02 09:36:23;;;;;;;20.63;15.48;;;;;;;18.08;100.00;101918.28;5020301;28;20064;-90
2023/09/02 09:38:52;;;;;;;23.65;17.20;;;;;;;18.03;100.00;101919.31;5025010;28;20026;-90
2023/09/02 09:41:18;;;;;;;23.20;17.42;;;;;;;18.00;100.00;101921.22;5022762;28;20120;-91
2023/09/02 09:43:43;;;;;;;24.52;17.98;;;;;;;18.00;100.00;101926.50;5024328;28;20535;-89
2023/09/02 09:46:14;;;;;;;23.02;17.08;;;;;;;18.04;100.00;101926.28;5026696;28;20457;-90
2023/09/02 09:48:48;;;;;;;24.07;18.27;;;;;;;18.14;100.00;101941.72;5026210;28;20044;-91
2023/09/02 09:51:23;;;;;;;25.70;18.05;;;;;;;18.24;100.00;101945.72;5026413;28;20041;-90
2023/09/02 09:53:48;;;;;;;23.48;18.13;;;;;;;18.27;100.00;101949.97;5024630;28;20044;-92
2023/09/02 09:56:13;;;;;;;21.75;17.08;;;;;;;18.28;100.00;101957.81;5028337;28;20031;-92
2023/09/02 09:58:38;;;;;;;23.00;18.00;;;;;;;18.28;100.00;101960.44;5024383;28;20473;-92
2023/09/02 10:01:04;;;;;;;24.38;17.88;;;;;;;18.28;100.00;101956.97;5027474;28;20029;-91
2023/09/02 10:03:31;;;;;;;22.75;17.35;;;;;;;18.29;100.00;101959.53;5025510;28;20982;-88
2023/09/02 10:05:59;;;;;;;21.70;16.45;;;;;;;18.27;100.00;101958.75;5025145;28;20044;-90
2023/09/02 10:08:25;;;;;;;20.60;15.15;;;;;;;18.23;100.00;101964.19;5026326;28;20052;-88
2023/09/02 10:10:50;;;;;;;21.00;16.25;;;;;;;18.19;100.00;101966.94;5026118;28;20658;-88
2023/09/02 10:13:16;;;;;;;20.63;15.80;;;;;;;18.18;100.00;101973.16;5011284;28;20162;-89
2023/09/02 10:15:42;;;;;;;21.63;16.23;;;;;;;18.25;100.00;101970.25;5023818;28;20045;-88
2023/09/02 10:18:07;;;;;;;21.13;15.98;;;;;;;18.31;100.00;101962.97;5021913;28;20037;-89
2023/09/02 10:20:35;;;;;;;22.67;16.85;;;;;;;18.38;100.00;101968.84;5025569;28;20036;-88
2023/09/02 10:23:07;;;;;;;20.35;16.13;;;;;;;18.46;100.00;101976.44;5025495;28;20032;-88
2023/09/02 10:26:05;;;;;;;20.40;16.27;;;;;;;18.55;100.00;101980.47;5023129;28;20044;-89
2023/09/02 10:28:39;;;;;;;20.15;15.88;;;;;;;18.62;100.00;101981.94;5024067;28;20038;-87
2023/09/02 10:31:20;;;;;;;18.52;15.43;;;;;;;18.66;100.00;101981.75;5023804;28;20497;-88
2023/09/02 10:33:49;;;;;;;20.45;15.60;;;;;;;18.66;100.00;101983.53;5007305;28;20018;-88
2023/09/02 10:36:17;;;;;;;18.27;15.02;;;;;;;18.64;100.00;101996.75;5022201;28;20033;-88
2023/09/02 10:38:47;;;;;;;19.38;15.45;;;;;;;18.63;100.00;101986.28;5022655;28;20026;-88
2023/09/02 10:41:14;;;;;;;17.20;13.80;;;;;;;18.61;100.00;101986.38;5024118;28;20488;-91
2023/09/02 10:43:41;;;;;;;17.95;14.18;;;;;;;18.65;100.00;101993.19;5025865;28;20056;-88
2023/09/02 10:46:10;;;;;;;19.33;14.65;;;;;;;18.69;100.00;101998.34;5025369;28;20037;-89
2023/09/02 10:48:41;;;;;;;20.10;15.30;;;;;;;18.75;100.00;102000.75;5024512;28;20040;-91
2023/09/02 10:51:08;;;;;;;18.17;14.82;;;;;;;18.84;100.00;101997.72;5021709;28;20018;-90
2023/09/02 10:53:50;;;;;;;20.35;14.95;;;;;;;18.98;100.00;101996.28;5022931;28;20389;-90
2023/09/02 10:56:35;;;;;;;19.77;16.25;;;;;;;19.07;100.00;101999.38;5022765;28;20087;-89
2023/09/02 10:59:05;;;;;;;21.08;15.70;;;;;;;19.07;100.00;101998.53;5024385;28;20029;-89
2023/09/02 11:01:44;;;;;;;17.33;13.90;;;;;;;19.05;100.00;102000.38;5022759;28;21069;-90
2023/09/02 11:04:10;;;;;;;20.10;15.73;;;;;;;19.03;100.00;102002.22;5021688;28;20044;-89
2023/09/02 11:06:35;;;;;;;20.65;15.57;;;;;;;18.99;100.00;102005.91;5023171;28;20041;-88
2023/09/02 11:09:00;;;;;;;15.60;12.95;;;;;;;18.94;100.00;102003.44;5024510;28;20425;-90
2023/09/02 11:12:06;;;;;;;17.33;14.73;;;;;;;18.91;100.00;102007.09;5023487;28;20017;-90